createdAt,value
2023-05-05T00:00:03.285Z,95244.00
2023-05-05T00:01:03.262Z,95246.00
2023-05-05T00:02:03.274Z,95244.00
2023-05-05T00:03:03.433Z,95244.00
2023-05-05T00:04:03.305Z,95244.00
2023-05-05T00:05:03.322Z,95244.00
2023-05-05T00:06:03.335Z,95242.00
2023-05-05T00:07:03.444Z,95240.00
2023-05-05T00:08:03.330Z,95242.00
2023-05-05T00:09:03.357Z,95240.00
2023-05-05T00:10:03.360Z,95238.00
2023-05-05T00:11:03.409Z,95242.00
2023-05-05T00:12:03.404Z,95242.00
2023-05-05T00:13:03.463Z,95240.00
2023-05-05T00:14:03.417Z,95242.00
2023-05-05T00:15:03.421Z,95240.00
2023-05-05T00:16:03.538Z,95236.00
2023-05-05T00:17:03.489Z,95240.00
2023-05-05T00:18:03.494Z,95238.00
2023-05-05T00:19:03.444Z,95238.00
2023-05-05T00:20:03.507Z,95242.00
2023-05-05T00:21:03.485Z,95238.00
2023-05-05T00:22:03.544Z,95240.00
2023-05-05T00:23:03.548Z,95242.00
2023-05-05T00:24:03.563Z,95238.00
2023-05-05T00:25:03.570Z,95238.00
2023-05-05T00:26:03.590Z,95240.00
2023-05-05T00:27:03.598Z,95238.00
2023-05-05T00:28:03.647Z,95238.00
2023-05-05T00:29:03.625Z,95240.00
2023-05-05T00:30:03.605Z,95238.00
2023-05-05T00:31:03.756Z,95240.00
2023-05-05T00:32:03.647Z,95238.00
2023-05-05T00:33:03.766Z,95238.00
2023-05-05T00:34:03.696Z,95238.00
2023-05-05T00:35:03.708Z,95240.00
2023-05-05T00:36:03.716Z,95242.00
2023-05-05T00:37:03.757Z,95240.00
2023-05-05T00:38:03.735Z,95242.00
2023-05-05T00:39:03.755Z,95242.00
2023-05-05T00:40:03.807Z,95242.00
2023-05-05T00:41:03.781Z,95242.00
2023-05-05T00:42:03.953Z,95244.00
2023-05-05T00:43:03.780Z,95244.00
2023-05-05T00:44:03.860Z,95244.00
2023-05-05T00:45:03.838Z,95244.00
2023-05-05T00:46:03.898Z,95248.00
2023-05-05T00:47:03.843Z,95246.00
2023-05-05T00:48:03.932Z,95248.00
2023-05-05T00:49:03.950Z,95248.00
2023-05-05T00:50:03.902Z,95244.00
2023-05-05T00:51:03.905Z,95244.00
2023-05-05T00:52:03.920Z,95242.00
2023-05-05T00:53:03.977Z,95242.00
2023-05-05T00:54:03.924Z,95240.00
2023-05-05T00:55:03.944Z,95242.00
2023-05-05T00:56:03.969Z,95244.00
2023-05-05T00:57:04.000Z,95240.00
2023-05-05T00:58:04.031Z,95244.00
2023-05-05T00:59:04.004Z,95242.00
2023-05-05T01:00:04.086Z,95244.00
2023-05-05T01:01:04.041Z,95244.00
2023-05-05T01:02:04.115Z,95242.00
2023-05-05T01:03:04.564Z,95242.00
2023-05-05T01:04:04.156Z,95242.00
2023-05-05T01:05:04.224Z,95238.00
2023-05-05T01:06:04.111Z,95240.00
2023-05-05T01:07:04.121Z,95238.00
2023-05-05T01:08:04.129Z,95236.00
2023-05-05T01:09:04.183Z,95236.00
2023-05-05T01:10:15.674Z,95234.00
2023-05-05T01:11:05.163Z,95236.00
2023-05-05T01:12:04.140Z,95236.00
2023-05-05T01:13:04.226Z,95236.00
2023-05-05T01:14:04.131Z,95238.00
2023-05-05T01:15:04.146Z,95238.00
2023-05-05T01:16:04.195Z,95238.00
2023-05-05T01:17:04.142Z,95238.00
2023-05-05T01:18:04.524Z,95238.00
2023-05-05T01:19:04.127Z,95240.00
2023-05-05T01:20:04.141Z,95240.00
2023-05-05T01:21:04.136Z,95238.00
2023-05-05T01:22:04.130Z,95238.00
2023-05-05T01:23:04.095Z,95238.00
2023-05-05T01:24:04.072Z,95238.00
2023-05-05T01:25:04.076Z,95240.00
2023-05-05T01:26:04.116Z,95242.00
2023-05-05T01:27:04.033Z,95242.00
2023-05-05T01:28:04.049Z,95244.00
2023-05-05T01:29:04.057Z,95238.00
2023-05-05T01:30:04.067Z,95246.00
2023-05-05T01:31:04.002Z,95246.00
2023-05-05T01:32:04.112Z,95244.00
2023-05-05T01:33:04.006Z,95244.00
2023-05-05T01:34:04.022Z,95246.00
2023-05-05T01:35:04.022Z,95240.00
2023-05-05T01:36:04.014Z,95240.00
2023-05-05T01:37:04.009Z,95240.00
2023-05-05T01:38:04.058Z,95244.00
2023-05-05T01:39:04.069Z,95246.00
2023-05-05T01:40:04.213Z,95246.00
2023-05-05T01:41:04.079Z,95244.00
2023-05-05T01:42:04.107Z,95246.00
2023-05-05T01:43:04.115Z,95244.00
2023-05-05T01:44:04.116Z,95248.00
2023-05-05T01:45:04.133Z,95244.00
2023-05-05T01:46:04.234Z,95244.00
2023-05-05T01:47:04.186Z,95246.00
2023-05-05T01:48:04.509Z,95246.00
2023-05-05T01:49:04.196Z,95248.00
2023-05-05T01:50:04.233Z,95248.00
2023-05-05T01:51:04.244Z,95250.00
2023-05-05T01:52:04.257Z,95250.00
2023-05-05T01:53:04.289Z,95246.00
2023-05-05T01:54:04.303Z,95244.00
2023-05-05T01:55:04.307Z,95244.00
2023-05-05T01:56:04.332Z,95244.00
2023-05-05T01:57:04.345Z,95246.00
2023-05-05T01:58:04.340Z,95248.00
2023-05-05T01:59:04.360Z,95246.00
2023-05-05T02:00:04.413Z,95252.00
2023-05-05T02:01:04.445Z,95252.00
2023-05-05T02:02:04.513Z,95252.00
2023-05-05T02:03:04.574Z,95250.00
2023-05-05T02:04:04.510Z,95248.00
2023-05-05T02:05:04.513Z,95250.00
2023-05-05T02:06:04.590Z,95246.00
2023-05-05T02:07:04.563Z,95246.00
2023-05-05T02:08:04.988Z,95252.00
2023-05-05T02:09:04.596Z,95252.00
2023-05-05T02:10:04.684Z,95252.00
2023-05-05T02:11:04.642Z,95254.00
2023-05-05T02:12:04.656Z,95254.00
2023-05-05T02:13:04.865Z,95252.00
2023-05-05T02:14:04.770Z,95256.00
2023-05-05T02:15:04.719Z,95254.00
2023-05-05T02:16:04.783Z,95258.00
2023-05-05T02:17:04.755Z,95258.00
2023-05-05T02:18:04.794Z,95258.00
2023-05-05T02:19:04.848Z,95260.00
2023-05-05T02:20:04.897Z,95260.00
2023-05-05T02:21:04.820Z,95260.00
2023-05-05T02:22:04.855Z,95260.00
2023-05-05T02:23:04.875Z,95260.00
2023-05-05T02:24:04.908Z,95260.00
2023-05-05T02:25:04.955Z,95258.00
2023-05-05T02:26:04.960Z,95260.00
2023-05-05T02:27:04.939Z,95258.00
2023-05-05T02:28:05.010Z,95258.00
2023-05-05T02:29:05.006Z,95261.00
2023-05-05T02:30:05.098Z,95263.00
2023-05-05T02:31:05.053Z,95265.00
2023-05-05T02:32:05.078Z,95265.00
2023-05-05T02:33:05.143Z,95261.00
2023-05-05T02:34:05.072Z,95261.00
2023-05-05T02:35:05.122Z,95260.00
2023-05-05T02:36:05.138Z,95256.00
2023-05-05T02:37:05.144Z,95258.00
2023-05-05T02:38:05.176Z,95260.00
2023-05-05T02:39:05.169Z,95261.00
2023-05-05T02:40:05.314Z,95263.00
2023-05-05T02:41:05.249Z,95263.00
2023-05-05T02:42:05.278Z,95265.00
2023-05-05T02:43:05.296Z,95265.00
2023-05-05T02:44:05.297Z,95265.00
2023-05-05T02:45:05.323Z,95265.00
2023-05-05T02:46:05.435Z,95265.00
2023-05-05T02:47:05.338Z,95265.00
2023-05-05T02:48:05.555Z,95267.00
2023-05-05T02:49:05.429Z,95267.00
2023-05-05T02:50:05.536Z,95269.00
2023-05-05T02:51:05.459Z,95269.00
2023-05-05T02:52:05.468Z,95269.00
2023-05-05T02:53:05.518Z,95269.00
2023-05-05T02:54:05.555Z,95269.00
2023-05-05T02:55:05.569Z,95267.00
2023-05-05T02:56:05.585Z,95271.00
2023-05-05T02:57:05.577Z,95269.00
2023-05-05T02:58:05.575Z,95267.00
2023-05-05T02:59:05.659Z,95267.00
2023-05-05T03:00:05.831Z,95267.00
2023-05-05T03:01:05.675Z,95267.00
2023-05-05T03:02:05.665Z,95267.00
2023-05-05T03:03:05.771Z,95269.00
2023-05-05T03:04:05.718Z,95271.00
2023-05-05T03:05:05.796Z,95271.00
2023-05-05T03:06:05.814Z,95269.00
2023-05-05T03:07:05.787Z,95273.00
2023-05-05T03:08:05.868Z,95273.00
2023-05-05T03:09:05.867Z,95273.00
2023-05-05T03:10:06.224Z,95273.00
2023-05-05T03:11:05.942Z,95271.00
2023-05-05T03:12:05.923Z,95269.00
2023-05-05T03:13:06.023Z,95271.00
2023-05-05T03:14:05.975Z,95269.00
2023-05-05T03:15:05.998Z,95267.00
2023-05-05T03:16:06.016Z,95269.00
2023-05-05T03:17:06.041Z,95269.00
2023-05-05T03:18:06.553Z,95273.00
2023-05-05T03:19:06.111Z,95271.00
2023-05-05T03:20:06.302Z,95269.00
2023-05-05T03:21:06.178Z,95273.00
2023-05-05T03:22:06.212Z,95269.00
2023-05-05T03:23:06.216Z,95267.00
2023-05-05T03:24:06.272Z,95267.00
2023-05-05T03:25:06.300Z,95267.00
2023-05-05T03:26:06.352Z,95269.00
2023-05-05T03:27:06.319Z,95267.00
2023-05-05T03:28:06.363Z,95269.00
2023-05-05T03:29:06.361Z,95267.00
2023-05-05T03:30:06.582Z,95267.00
2023-05-05T03:31:06.446Z,95269.00
2023-05-05T03:32:06.541Z,95271.00
2023-05-05T03:33:06.583Z,95269.00
2023-05-05T03:34:06.536Z,95271.00
2023-05-05T03:35:06.545Z,95271.00
2023-05-05T03:36:06.618Z,95271.00
2023-05-05T03:37:06.590Z,95271.00
2023-05-05T03:38:06.665Z,95271.00
2023-05-05T03:39:06.698Z,95269.00
2023-05-05T03:40:06.922Z,95271.00
2023-05-05T03:41:06.686Z,95269.00
2023-05-05T03:42:06.788Z,95273.00
2023-05-05T03:43:06.754Z,95273.00
2023-05-05T03:44:06.779Z,95271.00
2023-05-05T03:45:06.825Z,95271.00
2023-05-05T03:46:06.938Z,95271.00
2023-05-05T03:47:06.862Z,95267.00
2023-05-05T03:48:06.991Z,95273.00
2023-05-05T03:49:06.951Z,95273.00
2023-05-05T03:50:07.168Z,95271.00
2023-05-05T03:51:06.982Z,95271.00
2023-05-05T03:52:07.035Z,95269.00
2023-05-05T03:53:07.564Z,95269.00
2023-05-05T03:54:07.090Z,95269.00
2023-05-05T03:55:07.147Z,95269.00
2023-05-05T03:56:07.245Z,95269.00
2023-05-05T03:57:07.159Z,95271.00
2023-05-05T03:58:07.229Z,95269.00
2023-05-05T03:59:07.219Z,95267.00
2023-05-05T04:00:07.545Z,95265.00
2023-05-05T04:01:07.299Z,95263.00
2023-05-05T04:02:07.332Z,95263.00
2023-05-05T04:03:07.507Z,95263.00
2023-05-05T04:04:07.377Z,95267.00
2023-05-05T04:05:07.417Z,95267.00
2023-05-05T04:06:08.068Z,95269.00
2023-05-05T04:07:07.451Z,95269.00
2023-05-05T04:08:07.492Z,95269.00
2023-05-05T04:09:07.530Z,95269.00
2023-05-05T04:10:07.824Z,95267.00
2023-05-05T04:11:07.584Z,95269.00
2023-05-05T04:12:07.636Z,95271.00
2023-05-05T04:13:07.674Z,95267.00
2023-05-05T04:14:07.663Z,95269.00
2023-05-05T04:15:07.716Z,95271.00
2023-05-05T04:16:07.753Z,95271.00
2023-05-05T04:17:07.718Z,95269.00
2023-05-05T04:18:07.847Z,95271.00
2023-05-05T04:19:08.408Z,95271.00
2023-05-05T04:20:08.119Z,95271.00
2023-05-05T04:21:07.887Z,95271.00
2023-05-05T04:22:07.888Z,95271.00
2023-05-05T04:23:07.917Z,95273.00
2023-05-05T04:24:07.946Z,95271.00
2023-05-05T04:25:07.961Z,95271.00
2023-05-05T04:26:07.954Z,95273.00
2023-05-05T04:27:07.979Z,95269.00
2023-05-05T04:28:08.005Z,95271.00
2023-05-05T04:29:08.043Z,95275.00
2023-05-05T04:30:08.268Z,95273.00
2023-05-05T04:31:08.132Z,95273.00
2023-05-05T04:32:08.119Z,95275.00
2023-05-05T04:33:08.175Z,95277.00
2023-05-05T04:34:08.226Z,95277.00
2023-05-05T04:35:08.212Z,95277.00
2023-05-05T04:36:08.231Z,95277.00
2023-05-05T04:37:08.272Z,95279.00
2023-05-05T04:38:08.304Z,95281.00
2023-05-05T04:39:08.329Z,95281.00
2023-05-05T04:40:08.591Z,95281.00
2023-05-05T04:41:08.457Z,95281.00
2023-05-05T04:42:08.383Z,95283.00
2023-05-05T04:43:08.443Z,95283.00
2023-05-05T04:44:08.450Z,95287.00
2023-05-05T04:45:08.499Z,95283.00
2023-05-05T04:46:08.587Z,95283.00
2023-05-05T04:47:08.574Z,95285.00
2023-05-05T04:48:08.606Z,95287.00
2023-05-05T04:49:08.601Z,95287.00
2023-05-05T04:50:08.905Z,95287.00
2023-05-05T04:51:08.714Z,95287.00
2023-05-05T04:52:08.740Z,95287.00
2023-05-05T04:53:08.752Z,95287.00
2023-05-05T04:54:08.771Z,95287.00
2023-05-05T04:55:08.798Z,95287.00
2023-05-05T04:56:08.854Z,95285.00
2023-05-05T04:57:08.888Z,95289.00
2023-05-05T04:58:09.034Z,95291.00
2023-05-05T04:59:08.954Z,95291.00
2023-05-05T05:00:09.222Z,95293.00
2023-05-05T05:01:09.003Z,95293.00
2023-05-05T05:02:09.144Z,95293.00
2023-05-05T05:03:09.159Z,95297.00
2023-05-05T05:04:09.098Z,95297.00
2023-05-05T05:05:09.153Z,95297.00
2023-05-05T05:06:09.158Z,95299.00
2023-05-05T05:07:09.170Z,95299.00
2023-05-05T05:08:09.203Z,95299.00
2023-05-05T05:09:09.232Z,95299.00
2023-05-05T05:10:09.533Z,95299.00
2023-05-05T05:11:09.292Z,95297.00
2023-05-05T05:12:09.358Z,95301.00
2023-05-05T05:13:11.906Z,95299.00
2023-05-05T05:14:09.356Z,95303.00
2023-05-05T05:15:09.368Z,95303.00
2023-05-05T05:16:09.430Z,95303.00
2023-05-05T05:17:09.340Z,95303.00
2023-05-05T05:18:09.364Z,95299.00
2023-05-05T05:19:09.353Z,95301.00
2023-05-05T05:20:09.827Z,95299.00
2023-05-05T05:21:09.312Z,95299.00
2023-05-05T05:22:09.362Z,95295.00
2023-05-05T05:23:09.332Z,95299.00
2023-05-05T05:24:09.310Z,95297.00
2023-05-05T05:25:09.263Z,95299.00
2023-05-05T05:26:09.418Z,95301.00
2023-05-05T05:27:10.109Z,95301.00
2023-05-05T05:28:10.532Z,95301.00
2023-05-05T05:29:09.300Z,95299.00
2023-05-05T05:30:09.445Z,95297.00
2023-05-05T05:31:09.266Z,95297.00
2023-05-05T05:32:09.545Z,95299.00
2023-05-05T05:33:09.321Z,95299.00
2023-05-05T05:34:12.066Z,95299.00
2023-05-05T05:35:09.197Z,95299.00
2023-05-05T05:36:09.213Z,95299.00
2023-05-05T05:37:09.214Z,95297.00
2023-05-05T05:38:09.575Z,95301.00
2023-05-05T05:39:09.173Z,95301.00
2023-05-05T05:40:09.328Z,95301.00
2023-05-05T05:41:09.190Z,95301.00
2023-05-05T05:42:09.152Z,95303.00
2023-05-05T05:43:09.156Z,95303.00
2023-05-05T05:44:09.586Z,95303.00
2023-05-05T05:45:09.162Z,95303.00
2023-05-05T05:46:09.443Z,95301.00
2023-05-05T05:47:09.120Z,95305.00
2023-05-05T05:48:09.192Z,95301.00
2023-05-05T05:49:10.172Z,95301.00
2023-05-05T05:50:09.258Z,95305.00
2023-05-05T05:51:09.100Z,95303.00
2023-05-05T05:52:09.116Z,95307.00
2023-05-05T05:53:09.108Z,95308.00
2023-05-05T05:54:09.101Z,95308.00
2023-05-05T05:55:09.118Z,95308.00
2023-05-05T05:56:09.141Z,95307.00
2023-05-05T05:57:09.069Z,95307.00
2023-05-05T05:58:09.050Z,95307.00
2023-05-05T05:59:09.055Z,95307.00
2023-05-05T06:00:09.295Z,95308.00
2023-05-05T06:01:09.058Z,95308.00
2023-05-05T06:02:09.068Z,95307.00
2023-05-05T06:03:09.110Z,95305.00
2023-05-05T06:04:09.205Z,95308.00
2023-05-05T06:05:09.043Z,95308.00
2023-05-05T06:06:09.005Z,95308.00
2023-05-05T06:07:09.002Z,95310.00
2023-05-05T06:08:09.007Z,95308.00
2023-05-05T06:09:09.129Z,95310.00
2023-05-05T06:10:25.718Z,95308.00
2023-05-05T06:11:10.014Z,95310.00
2023-05-05T06:12:08.958Z,95308.00
2023-05-05T06:13:09.017Z,95308.00
2023-05-05T06:14:09.112Z,95307.00
2023-05-05T06:15:08.966Z,95308.00
2023-05-05T06:16:08.998Z,95308.00
2023-05-05T06:17:09.000Z,95307.00
2023-05-05T06:18:08.948Z,95308.00
2023-05-05T06:19:09.127Z,95305.00
2023-05-05T06:20:09.148Z,95305.00
2023-05-05T06:21:08.912Z,95301.00
2023-05-05T06:22:08.892Z,95301.00
2023-05-05T06:23:08.913Z,95301.00
2023-05-05T06:24:09.091Z,95301.00
2023-05-05T06:25:08.875Z,95297.00
2023-05-05T06:26:08.872Z,95301.00
2023-05-05T06:27:08.920Z,95301.00
2023-05-05T06:28:08.993Z,95299.00
2023-05-05T06:29:10.522Z,95303.00
2023-05-05T06:30:09.265Z,95301.00
2023-05-05T06:31:09.139Z,95299.00
2023-05-05T06:32:09.014Z,95299.00
2023-05-05T06:33:09.159Z,95299.00
2023-05-05T06:34:09.128Z,95297.00
2023-05-05T06:35:08.981Z,95295.00
2023-05-05T06:36:09.028Z,95293.00
2023-05-05T06:37:09.005Z,95293.00
2023-05-05T06:38:08.971Z,95289.00
2023-05-05T06:39:09.082Z,95289.00
2023-05-05T06:40:09.131Z,95285.00
2023-05-05T06:41:08.997Z,95285.00
2023-05-05T06:42:08.956Z,95283.00
2023-05-05T06:43:08.960Z,95287.00
2023-05-05T06:44:08.953Z,95279.00
2023-05-05T06:45:08.924Z,95281.00
2023-05-05T06:46:08.933Z,95279.00
2023-05-05T06:47:08.977Z,95275.00
2023-05-05T06:48:08.937Z,95277.00
2023-05-05T06:49:08.932Z,95277.00
2023-05-05T06:50:09.180Z,95275.00
2023-05-05T06:51:08.905Z,95265.00
2023-05-05T06:52:08.901Z,95273.00
2023-05-05T06:53:08.867Z,95269.00
2023-05-05T06:54:08.926Z,95273.00
2023-05-05T06:55:08.869Z,95269.00
2023-05-05T06:56:08.934Z,95271.00
2023-05-05T06:57:08.855Z,95275.00
2023-05-05T06:58:09.596Z,95275.00
2023-05-05T06:59:09.600Z,95273.00
2023-05-05T07:00:08.962Z,95273.00
2023-05-05T07:01:08.867Z,95273.00
2023-05-05T07:02:08.815Z,95273.00
2023-05-05T07:03:08.837Z,95277.00
2023-05-05T07:04:09.157Z,95273.00
2023-05-05T07:05:08.800Z,95275.00
2023-05-05T07:06:08.853Z,95275.00
2023-05-05T07:07:08.792Z,95273.00
2023-05-05T07:08:08.772Z,95271.00
2023-05-05T07:09:08.822Z,95269.00
2023-05-05T07:10:09.033Z,95269.00
2023-05-05T07:11:08.764Z,95267.00
2023-05-05T07:12:08.916Z,95269.00
2023-05-05T07:13:08.829Z,95265.00
2023-05-05T07:14:08.760Z,95263.00
2023-05-05T07:15:23.482Z,95265.00
2023-05-05T07:16:09.765Z,95265.00
2023-05-05T07:17:08.759Z,95261.00
2023-05-05T07:18:08.750Z,95261.00
2023-05-05T07:19:08.730Z,95260.00
2023-05-05T07:20:09.130Z,95258.00
2023-05-05T07:21:08.718Z,95258.00
2023-05-05T07:22:08.697Z,95252.00
2023-05-05T07:23:08.682Z,95252.00
2023-05-05T07:24:08.689Z,95252.00
2023-05-05T07:25:08.694Z,95252.00
2023-05-05T07:26:08.656Z,95250.00
2023-05-05T07:27:08.732Z,95252.00
2023-05-05T07:28:08.778Z,95252.00
2023-05-05T07:29:08.670Z,95248.00
2023-05-05T07:30:13.068Z,95248.00
2023-05-05T07:31:09.646Z,95250.00
2023-05-05T07:32:08.676Z,95248.00
2023-05-05T07:33:08.657Z,95246.00
2023-05-05T07:34:08.607Z,95244.00
2023-05-05T07:35:08.817Z,95246.00
2023-05-05T07:36:08.591Z,95242.00
2023-05-05T07:37:08.581Z,95242.00
2023-05-05T07:38:10.174Z,95242.00
2023-05-05T07:39:17.708Z,95238.00
2023-05-05T07:40:08.896Z,95238.00
2023-05-05T07:41:08.572Z,95238.00
2023-05-05T07:42:08.572Z,95234.00
2023-05-05T07:43:08.579Z,95236.00
2023-05-05T07:44:08.602Z,95238.00
2023-05-05T07:45:08.610Z,95236.00
2023-05-05T07:46:08.565Z,95236.00
2023-05-05T07:47:08.490Z,95230.00
2023-05-05T07:48:08.558Z,95228.00
2023-05-05T07:49:08.526Z,95226.00
2023-05-05T07:50:08.808Z,95218.00
2023-05-05T07:51:08.490Z,95218.00
2023-05-05T07:52:08.498Z,95216.00
2023-05-05T07:53:14.299Z,95216.00
2023-05-05T07:54:09.495Z,95213.00
2023-05-05T07:55:08.541Z,95216.00
2023-05-05T07:56:08.472Z,95213.00
2023-05-05T07:57:08.460Z,95214.00
2023-05-05T07:58:08.509Z,95213.00
2023-05-05T07:59:08.650Z,95216.00
2023-05-05T08:00:08.781Z,95211.00
2023-05-05T08:01:08.449Z,95211.00
2023-05-05T08:02:08.489Z,95209.00
2023-05-05T08:03:11.312Z,95209.00
2023-05-05T08:04:08.712Z,95211.00
2023-05-05T08:05:08.774Z,95209.00
2023-05-05T08:06:08.394Z,95211.00
2023-05-05T08:07:08.417Z,95211.00
2023-05-05T08:08:08.351Z,95205.00
2023-05-05T08:09:08.367Z,95207.00
2023-05-05T08:10:08.373Z,95207.00
2023-05-05T08:11:08.356Z,95205.00
2023-05-05T08:12:08.354Z,95203.00
2023-05-05T08:13:08.414Z,95205.00
2023-05-05T08:14:08.335Z,95201.00
2023-05-05T08:15:08.669Z,95197.00
2023-05-05T08:16:08.516Z,95199.00
2023-05-05T08:17:08.317Z,95197.00
2023-05-05T08:18:08.380Z,95197.00
2023-05-05T08:19:17.848Z,95197.00
2023-05-05T08:20:09.314Z,95195.00
2023-05-05T08:21:08.309Z,95195.00
2023-05-05T08:22:08.333Z,95191.00
2023-05-05T08:23:08.305Z,95193.00
2023-05-05T08:24:08.648Z,95187.00
2023-05-05T08:25:08.441Z,95191.00
2023-05-05T08:26:08.261Z,95189.00
2023-05-05T08:27:08.262Z,95187.00
2023-05-05T08:28:08.269Z,95187.00
2023-05-05T08:29:08.649Z,95185.00
2023-05-05T08:30:08.310Z,95183.00
2023-05-05T08:31:08.243Z,95185.00
2023-05-05T08:32:08.310Z,95183.00
2023-05-05T08:33:08.297Z,95181.00
2023-05-05T08:34:08.687Z,95179.00
2023-05-05T08:35:08.378Z,95175.00
2023-05-05T08:36:08.214Z,95173.00
2023-05-05T08:37:08.176Z,95175.00
2023-05-05T08:38:08.189Z,95167.00
2023-05-05T08:39:08.176Z,95166.00
2023-05-05T08:40:08.183Z,95164.00
2023-05-05T08:41:08.171Z,95166.00
2023-05-05T08:42:08.165Z,95164.00
2023-05-05T08:43:08.157Z,95162.00
2023-05-05T08:44:08.210Z,95160.00
2023-05-05T08:45:08.526Z,95164.00
2023-05-05T08:46:08.154Z,95158.00
2023-05-05T08:47:08.173Z,95158.00
2023-05-05T08:48:08.325Z,95156.00
2023-05-05T08:49:08.241Z,95154.00
2023-05-05T08:50:08.237Z,95150.00
2023-05-05T08:51:08.244Z,95146.00
2023-05-05T08:52:08.283Z,95148.00
2023-05-05T08:53:08.282Z,95146.00
2023-05-05T08:54:08.706Z,95146.00
2023-05-05T08:55:08.492Z,95146.00
2023-05-05T08:56:08.349Z,95144.00
2023-05-05T08:57:08.364Z,95146.00
2023-05-05T08:58:08.356Z,95146.00
2023-05-05T08:59:08.406Z,95144.00
2023-05-05T09:00:08.400Z,95136.00
2023-05-05T09:01:08.478Z,95146.00
2023-05-05T09:02:08.502Z,95136.00
2023-05-05T09:03:08.637Z,95132.00
2023-05-05T09:04:08.786Z,95130.00
2023-05-05T09:05:08.761Z,95132.00
2023-05-05T09:06:08.649Z,95128.00
2023-05-05T09:07:08.684Z,95124.00
2023-05-05T09:08:08.779Z,95126.00
2023-05-05T09:09:08.846Z,95126.00
2023-05-05T09:10:08.865Z,95122.00
2023-05-05T09:11:08.965Z,95120.00
2023-05-05T09:12:08.972Z,95120.00
2023-05-05T09:13:09.043Z,95122.00
2023-05-05T09:14:09.147Z,95120.00
2023-05-05T09:15:09.466Z,95116.00
2023-05-05T09:16:09.215Z,95116.00
2023-05-05T09:17:09.441Z,95114.00
2023-05-05T09:18:09.368Z,95113.00
2023-05-05T09:19:09.689Z,95113.00
2023-05-05T09:20:09.444Z,95107.00
2023-05-05T09:21:09.495Z,95107.00
2023-05-05T09:22:09.547Z,95105.00
2023-05-05T09:23:09.627Z,95103.00
2023-05-05T09:24:09.852Z,95101.00
2023-05-05T09:25:09.906Z,95101.00
2023-05-05T09:26:09.739Z,95107.00
2023-05-05T09:27:09.780Z,95103.00
2023-05-05T09:28:09.815Z,95099.00
2023-05-05T09:29:09.854Z,95101.00
2023-05-05T09:30:09.942Z,95099.00
2023-05-05T09:31:09.973Z,95097.00
2023-05-05T09:32:09.994Z,95095.00
2023-05-05T09:33:10.104Z,95093.00
2023-05-05T09:34:10.157Z,95093.00
2023-05-05T09:35:10.251Z,95093.00
2023-05-05T09:36:10.220Z,95087.00
2023-05-05T09:37:10.276Z,95089.00
2023-05-05T09:38:10.309Z,95085.00
2023-05-05T09:39:10.715Z,95081.00
2023-05-05T09:40:10.410Z,95081.00
2023-05-05T09:41:10.430Z,95083.00
2023-05-05T09:42:10.495Z,95079.00
2023-05-05T09:43:10.529Z,95077.00
2023-05-05T09:44:10.577Z,95079.00
2023-05-05T09:45:10.589Z,95073.00
2023-05-05T09:46:10.734Z,95075.00
2023-05-05T09:47:26.179Z,95075.00
2023-05-05T09:48:11.691Z,95073.00
2023-05-05T09:49:10.717Z,95071.00
2023-05-05T09:50:10.726Z,95071.00
2023-05-05T09:51:10.660Z,95069.00
2023-05-05T09:52:10.852Z,95071.00
2023-05-05T09:53:10.672Z,95069.00
2023-05-05T09:54:10.643Z,95066.00
2023-05-05T09:55:10.736Z,95067.00
2023-05-05T09:56:10.611Z,95064.00
2023-05-05T09:57:10.670Z,95066.00
2023-05-05T09:58:10.664Z,95066.00
2023-05-05T09:59:10.641Z,95064.00
2023-05-05T10:00:10.982Z,95064.00
2023-05-05T10:01:10.771Z,95060.00
2023-05-05T10:02:10.793Z,95058.00
2023-05-05T10:03:11.723Z,95058.00
2023-05-05T10:04:10.877Z,95058.00
2023-05-05T10:05:11.218Z,95058.00
2023-05-05T10:06:10.996Z,95054.00
2023-05-05T10:07:11.065Z,95054.00
2023-05-05T10:08:11.270Z,95052.00
2023-05-05T10:09:11.177Z,95054.00
2023-05-05T10:10:11.916Z,95052.00
2023-05-05T10:11:11.295Z,95052.00
2023-05-05T10:12:11.346Z,95052.00
2023-05-05T10:13:11.510Z,95050.00
2023-05-05T10:14:11.447Z,95042.00
2023-05-05T10:15:11.707Z,95042.00
2023-05-05T10:16:11.641Z,95038.00
2023-05-05T10:17:11.675Z,95036.00
2023-05-05T10:18:11.759Z,95036.00
2023-05-05T10:19:11.779Z,95038.00
2023-05-05T10:20:11.817Z,95032.00
2023-05-05T10:21:11.885Z,95032.00
2023-05-05T10:22:11.970Z,95030.00
2023-05-05T10:23:11.994Z,95026.00
2023-05-05T10:24:12.192Z,95026.00
2023-05-05T10:25:12.231Z,95028.00
2023-05-05T10:26:12.171Z,95024.00
2023-05-05T10:27:12.724Z,95024.00
2023-05-05T10:28:12.301Z,95024.00
2023-05-05T10:29:12.372Z,95024.00
2023-05-05T10:30:12.726Z,95022.00
2023-05-05T10:31:24.164Z,95016.00
2023-05-05T10:32:37.001Z,95012.00
2023-05-05T10:33:30.230Z,95016.00
2023-05-05T10:34:13.623Z,95012.00
2023-05-05T10:35:12.743Z,95011.00
2023-05-05T10:36:12.421Z,95009.00
2023-05-05T10:37:12.436Z,95009.00
2023-05-05T10:38:12.402Z,95003.00
2023-05-05T10:39:12.417Z,95003.00
2023-05-05T10:40:12.805Z,94999.00
2023-05-05T10:41:12.400Z,94997.00
2023-05-05T10:42:12.415Z,94995.00
2023-05-05T10:43:12.382Z,94993.00
2023-05-05T10:44:12.385Z,94993.00
2023-05-05T10:45:12.799Z,94991.00
2023-05-05T10:46:12.413Z,94987.00
2023-05-05T10:47:12.372Z,94985.00
2023-05-05T10:48:12.498Z,94983.00
2023-05-05T10:49:13.431Z,94981.00
2023-05-05T10:50:12.777Z,94979.00
2023-05-05T10:51:13.179Z,94979.00
2023-05-05T10:52:12.327Z,94975.00
2023-05-05T10:53:12.342Z,94977.00
2023-05-05T10:54:12.479Z,94975.00
2023-05-05T10:55:12.756Z,94971.00
2023-05-05T10:56:12.472Z,94973.00
2023-05-05T10:57:12.456Z,94971.00
2023-05-05T10:58:12.524Z,94965.00
2023-05-05T10:59:12.587Z,94967.00
2023-05-05T11:00:14.626Z,94962.00
2023-05-05T11:01:12.705Z,94965.00
2023-05-05T11:02:12.773Z,94962.00
2023-05-05T11:03:12.874Z,94960.00
2023-05-05T11:04:12.840Z,94956.00
2023-05-05T11:05:13.250Z,94958.00
2023-05-05T11:06:12.991Z,94954.00
2023-05-05T11:07:14.985Z,94956.00
2023-05-05T11:08:13.116Z,94952.00
2023-05-05T11:09:13.123Z,94950.00
2023-05-05T11:10:13.239Z,94946.00
2023-05-05T11:11:13.278Z,94944.00
2023-05-05T11:12:13.411Z,94940.00
2023-05-05T11:13:13.469Z,94940.00
2023-05-05T11:14:13.460Z,94936.00
2023-05-05T11:15:13.751Z,94934.00
2023-05-05T11:16:13.602Z,94930.00
2023-05-05T11:17:13.633Z,94928.00
2023-05-05T11:18:13.703Z,94930.00
2023-05-05T11:19:13.782Z,94928.00
2023-05-05T11:20:14.327Z,94922.00
2023-05-05T11:21:13.911Z,94924.00
2023-05-05T11:22:13.956Z,94920.00
2023-05-05T11:23:16.528Z,94915.00
2023-05-05T11:24:14.026Z,94911.00
2023-05-05T11:25:14.249Z,94907.00
2023-05-05T11:26:13.986Z,94911.00
2023-05-05T11:27:14.978Z,94911.00
2023-05-05T11:28:14.197Z,94905.00
2023-05-05T11:29:13.981Z,94909.00
2023-05-05T11:30:14.024Z,94909.00
2023-05-05T11:31:13.979Z,94905.00
2023-05-05T11:32:13.976Z,94903.00
2023-05-05T11:33:13.959Z,94901.00
2023-05-05T11:34:13.930Z,94897.00
2023-05-05T11:35:14.268Z,94899.00
2023-05-05T11:36:13.917Z,94899.00
2023-05-05T11:37:13.962Z,94897.00
2023-05-05T11:38:13.997Z,94893.00
2023-05-05T11:39:14.058Z,94895.00
2023-05-05T11:40:14.163Z,94891.00
2023-05-05T11:41:14.205Z,94889.00
2023-05-05T11:42:14.303Z,94887.00
2023-05-05T11:43:14.308Z,94879.00
2023-05-05T11:44:14.406Z,94879.00